createdAt,value
2019-04-25T00:01:21.563Z,49.90
2019-04-25T00:03:53.469Z,47.83
2019-04-25T00:06:26.127Z,46.55
2019-04-25T00:08:57.609Z,48.48
2019-04-25T00:11:29.258Z,45.33
2019-04-25T00:14:01.805Z,44.40
2019-04-25T00:16:35.128Z,43.17
2019-04-25T00:19:06.853Z,41.90
2019-04-25T00:21:52.138Z,43.15
2019-04-25T00:24:27.987Z,41.08
2019-04-25T00:26:59.573Z,43.55
2019-04-25T00:29:31.856Z,44.25
2019-04-25T00:32:03.595Z,44.67
2019-04-25T00:34:35.368Z,43.75
2019-04-25T00:37:07.111Z,41.98
2019-04-25T00:39:38.797Z,42.88
2019-04-25T00:42:10.260Z,40.28
2019-04-25T00:44:45.942Z,40.95
2019-04-25T00:47:17.651Z,39.70
2019-04-25T00:49:52.099Z,38.25
2019-04-25T00:52:23.546Z,37.58
2019-04-25T00:54:57.067Z,36.28
2019-04-25T00:57:29.683Z,34.95
2019-04-25T01:00:11.751Z,34.95
2019-04-25T01:02:53.207Z,35.88
2019-04-25T01:05:24.633Z,37.65
2019-04-25T01:07:56.027Z,39.60
2019-04-25T01:10:27.576Z,38.15
2019-04-25T01:12:59.359Z,37.65
2019-04-25T01:15:31.423Z,38.05
2019-04-25T01:18:03.218Z,36.80
2019-04-25T01:20:34.742Z,38.95
2019-04-25T01:23:06.372Z,39.20
2019-04-25T01:25:42.555Z,41.10
2019-04-25T01:28:13.234Z,42.25
2019-04-25T01:30:46.285Z,41.35
2019-04-25T01:33:17.901Z,43.00
2019-04-25T01:35:54.893Z,43.58
2019-04-25T01:38:28.931Z,42.80
2019-04-25T01:41:04.990Z,43.02
2019-04-25T01:43:47.388Z,40.58
2019-04-25T01:46:20.247Z,41.50
2019-04-25T01:48:54.214Z,39.78
2019-04-25T01:51:25.713Z,40.25
2019-04-25T01:53:57.307Z,38.95
2019-04-25T01:56:28.794Z,39.65
2019-04-25T01:59:00.429Z,39.83
2019-04-25T02:01:34.007Z,35.23
2019-04-25T02:04:05.618Z,32.75
2019-04-25T02:06:37.302Z,33.00
2019-04-25T02:09:10.985Z,33.98
2019-04-25T02:11:46.879Z,29.00
2019-04-25T02:14:20.433Z,26.90
2019-04-25T02:16:53.183Z,25.65
2019-04-25T02:19:25.315Z,25.92
2019-04-25T02:21:57.782Z,25.27
2019-04-25T02:24:29.476Z,24.92
2019-04-25T02:27:04.598Z,24.32
2019-04-25T02:29:36.710Z,25.30
2019-04-25T02:32:09.181Z,23.87
2019-04-25T02:34:40.826Z,24.92
2019-04-25T02:37:14.664Z,24.65
2019-04-25T02:39:45.381Z,22.93
2019-04-25T02:42:17.149Z,23.10
2019-04-25T02:44:56.122Z,23.67
2019-04-25T02:47:28.445Z,23.67
2019-04-25T02:50:09.159Z,24.98
2019-04-25T02:52:44.237Z,25.82
2019-04-25T02:55:29.520Z,26.87
2019-04-25T02:57:48.863Z,27.75
2019-04-25T03:00:24.911Z,28.52
2019-04-25T03:02:57.936Z,27.87
2019-04-25T03:05:30.462Z,27.02
2019-04-25T03:08:05.191Z,27.77
2019-04-25T03:10:35.069Z,30.57
2019-04-25T03:13:10.302Z,29.65
2019-04-25T03:15:39.585Z,29.65
2019-04-25T03:18:14.618Z,27.32
2019-04-25T03:20:54.739Z,25.40
2019-04-25T03:23:34.970Z,27.02
2019-04-25T03:26:09.211Z,24.98
2019-04-25T03:28:40.655Z,23.87
2019-04-25T03:31:18.746Z,23.30
2019-04-25T03:33:46.223Z,24.52
2019-04-25T03:36:19.036Z,23.22
2019-04-25T03:38:50.558Z,22.98
2019-04-25T03:41:22.241Z,23.12
2019-04-25T03:43:54.807Z,23.12
2019-04-25T03:46:27.935Z,24.10
2019-04-25T03:48:59.421Z,24.98
2019-04-25T03:51:30.976Z,25.00
2019-04-25T03:54:04.203Z,24.80
2019-04-25T03:56:36.079Z,23.75
2019-04-25T03:59:08.467Z,24.32
2019-04-25T04:01:40.160Z,23.80
2019-04-25T04:04:14.374Z,24.35
2019-04-25T04:06:45.926Z,23.87
2019-04-25T04:09:17.343Z,24.52
2019-04-25T04:11:48.730Z,22.85
2019-04-25T04:14:20.312Z,22.30
2019-04-25T04:17:16.073Z,22.65
2019-04-25T04:19:55.220Z,21.80
2019-04-25T04:22:37.069Z,21.95
2019-04-25T04:25:10.400Z,22.45
2019-04-25T04:27:41.822Z,22.42
2019-04-25T04:30:14.460Z,21.65
2019-04-25T04:32:46.879Z,22.17
2019-04-25T04:35:18.273Z,28.45
2019-04-25T04:37:49.845Z,22.50
2019-04-25T04:40:21.339Z,21.93
2019-04-25T04:42:53.966Z,22.75
2019-04-25T04:45:26.586Z,23.30
2019-04-25T04:47:58.228Z,24.15
2019-04-25T04:50:29.743Z,23.75
2019-04-25T04:53:03.843Z,23.22
2019-04-25T04:55:35.958Z,23.73
2019-04-25T04:58:07.427Z,23.57
2019-04-25T05:00:38.962Z,24.27
2019-04-25T05:03:17.872Z,23.52
2019-04-25T05:05:51.178Z,24.63
2019-04-25T05:08:30.091Z,23.95
2019-04-25T05:11:01.605Z,23.30
2019-04-25T05:13:34.230Z,24.52
2019-04-25T05:16:05.751Z,23.50
2019-04-25T05:18:39.867Z,24.67
2019-04-25T05:21:10.447Z,25.35
2019-04-25T05:23:41.920Z,24.87
2019-04-25T05:26:15.107Z,24.20
2019-04-25T05:28:46.769Z,26.30
2019-04-25T05:31:19.966Z,25.90
2019-04-25T05:33:51.413Z,26.10
2019-04-25T05:36:24.916Z,25.75
2019-04-25T05:38:56.535Z,25.75
2019-04-25T05:41:29.650Z,26.20
2019-04-25T05:44:01.163Z,26.20
2019-04-25T05:46:34.047Z,26.62
2019-04-25T05:49:05.848Z,26.42
2019-04-25T05:51:37.317Z,26.40
2019-04-25T05:54:09.825Z,27.17
2019-04-25T05:56:43.812Z,27.13
2019-04-25T05:59:15.285Z,27.37
2019-04-25T06:01:46.796Z,27.93
2019-04-25T06:04:19.051Z,28.12
2019-04-25T06:06:50.535Z,27.60
2019-04-25T06:09:26.583Z,28.00
2019-04-25T06:12:05.467Z,27.67
2019-04-25T06:14:36.844Z,28.42
2019-04-25T06:17:13.714Z,28.70
2019-04-25T06:19:46.955Z,28.60
2019-04-25T06:22:24.371Z,28.20
2019-04-25T06:24:57.833Z,28.00
2019-04-25T06:27:35.227Z,28.15
2019-04-25T06:30:10.446Z,28.45
2019-04-25T06:32:43.642Z,29.50
2019-04-25T06:35:15.331Z,30.62
2019-04-25T06:37:46.797Z,29.15
2019-04-25T06:40:19.668Z,29.70
2019-04-25T06:42:53.601Z,30.02
2019-04-25T06:45:28.137Z,29.20
2019-04-25T06:48:04.174Z,29.10
2019-04-25T06:50:35.792Z,31.05
2019-04-25T06:53:07.470Z,31.05
2019-04-25T06:55:38.820Z,31.23
2019-04-25T06:58:13.990Z,31.48
2019-04-25T07:00:57.190Z,30.55
2019-04-25T07:03:18.167Z,30.97
2019-04-25T07:05:53.615Z,31.20
2019-04-25T07:08:26.671Z,31.05
2019-04-25T07:10:58.362Z,32.60
2019-04-25T07:13:30.468Z,31.68
2019-04-25T07:16:04.780Z,32.40
2019-04-25T07:18:38.573Z,33.13
2019-04-25T07:21:10.114Z,33.15
2019-04-25T07:23:43.238Z,31.50
2019-04-25T07:26:17.103Z,31.80
2019-04-25T07:29:03.282Z,34.18
2019-04-25T07:31:54.014Z,32.73
2019-04-25T07:34:27.462Z,33.28
2019-04-25T07:36:59.022Z,33.38
2019-04-25T07:39:30.563Z,32.75
2019-04-25T07:42:02.061Z,33.23
2019-04-25T07:44:46.130Z,33.88
2019-04-25T07:47:07.788Z,33.42
2019-04-25T07:49:39.273Z,33.50
2019-04-25T07:52:11.660Z,33.98
2019-04-25T07:54:44.101Z,33.23
2019-04-25T07:57:15.673Z,32.33
2019-04-25T07:59:47.048Z,34.80
2019-04-25T08:02:18.601Z,35.73
2019-04-25T08:04:50.093Z,37.25
2019-04-25T08:07:21.605Z,37.78
2019-04-25T08:09:54.178Z,35.63
2019-04-25T08:12:25.714Z,37.10
2019-04-25T08:14:58.989Z,37.70
2019-04-25T08:17:47.517Z,35.03
2019-04-25T08:20:20.670Z,34.05
2019-04-25T08:22:58.552Z,34.38
2019-04-25T08:25:26.343Z,34.53
2019-04-25T08:27:57.877Z,33.30
2019-04-25T08:30:29.902Z,32.63
2019-04-25T08:33:03.960Z,33.08
2019-04-25T08:35:36.549Z,32.88
2019-04-25T08:38:08.205Z,32.03
2019-04-25T08:40:40.395Z,33.15
2019-04-25T08:43:12.124Z,47.17
2019-04-25T08:45:45.792Z,31.37
2019-04-25T08:48:23.449Z,31.60
2019-04-25T08:51:06.274Z,31.15
2019-04-25T08:53:44.113Z,30.80
2019-04-25T08:56:17.069Z,31.42
2019-04-25T08:59:06.189Z,31.42
2019-04-25T09:01:48.870Z,31.23
2019-04-25T09:04:21.937Z,30.65
2019-04-25T09:06:53.732Z,29.82
2019-04-25T09:09:25.458Z,31.27
2019-04-25T09:12:05.661Z,31.60
2019-04-25T09:14:37.752Z,30.68
2019-04-25T09:17:09.611Z,31.17
2019-04-25T09:19:42.007Z,30.17
2019-04-25T09:22:15.149Z,28.77
2019-04-25T09:24:46.642Z,30.40
2019-04-25T09:27:18.141Z,28.85
2019-04-25T09:29:49.546Z,28.98
2019-04-25T09:32:21.089Z,28.07
2019-04-25T09:34:54.062Z,28.05
2019-04-25T09:37:26.672Z,27.55
2019-04-25T09:39:59.810Z,27.70
2019-04-25T09:42:31.240Z,27.77
2019-04-25T09:45:10.208Z,25.70
2019-04-25T09:47:43.803Z,29.48
2019-04-25T09:50:17.892Z,27.87
2019-04-25T09:52:49.771Z,25.15
2019-04-25T09:55:36.012Z,25.62
2019-04-25T09:58:09.302Z,25.68
2019-04-25T10:00:43.622Z,25.75
2019-04-25T10:03:16.335Z,23.75
2019-04-25T10:05:47.778Z,23.50
2019-04-25T10:08:19.289Z,21.20
2019-04-25T10:10:50.728Z,20.60
2019-04-25T10:13:25.235Z,21.62
2019-04-25T10:16:08.578Z,22.37
2019-04-25T10:18:41.387Z,21.73
2019-04-25T10:21:14.288Z,23.02
2019-04-25T10:23:46.811Z,22.70
2019-04-25T10:26:21.900Z,22.55
2019-04-25T10:29:04.804Z,22.37
2019-04-25T10:31:36.457Z,22.73
2019-04-25T10:34:07.825Z,22.90
2019-04-25T10:36:41.277Z,21.40
2019-04-25T10:39:14.977Z,21.85
2019-04-25T10:41:47.096Z,22.50
2019-04-25T10:44:21.000Z,90.55
2019-04-25T10:46:54.446Z,23.18
2019-04-25T10:49:25.725Z,24.05
2019-04-25T10:51:57.730Z,22.82
2019-04-25T10:54:29.219Z,22.42
2019-04-25T10:57:00.647Z,22.27
2019-04-25T10:59:32.408Z,23.07
2019-04-25T11:02:04.064Z,21.93
2019-04-25T11:04:37.148Z,25.15
2019-04-25T11:07:08.711Z,21.12
2019-04-25T11:09:44.965Z,21.80
2019-04-25T11:12:15.540Z,21.12
2019-04-25T11:14:47.266Z,20.85
2019-04-25T11:17:19.159Z,22.80
2019-04-25T11:19:51.176Z,21.73
2019-04-25T11:22:23.987Z,21.65
2019-04-25T11:24:55.608Z,23.18
2019-04-25T11:27:27.502Z,22.40
2019-04-25T11:30:09.223Z,22.67
2019-04-25T11:32:34.060Z,22.05
2019-04-25T11:35:06.527Z,21.02
2019-04-25T11:37:38.287Z,23.22
2019-04-25T11:40:11.771Z,21.65
2019-04-25T11:42:45.915Z,22.15
2019-04-25T11:45:16.933Z,21.97
2019-04-25T11:47:48.496Z,23.30
2019-04-25T11:50:20.097Z,23.07
2019-04-25T11:52:52.545Z,23.12
2019-04-25T11:55:24.668Z,23.15
2019-04-25T11:57:56.134Z,23.30
2019-04-25T12:00:33.789Z,22.87
2019-04-25T12:03:06.779Z,22.52
2019-04-25T12:05:38.301Z,23.75
2019-04-25T12:08:10.439Z,22.45
2019-04-25T12:10:43.132Z,23.20
2019-04-25T12:13:15.495Z,22.82
2019-04-25T12:15:47.125Z,24.18
2019-04-25T12:18:18.843Z,22.58
2019-04-25T12:20:51.012Z,22.22
2019-04-25T12:23:23.398Z,22.42
2019-04-25T12:25:55.310Z,49.70
2019-04-25T12:28:26.797Z,23.27
2019-04-25T12:30:58.287Z,24.40
2019-04-25T12:33:29.878Z,22.60
2019-04-25T12:36:02.094Z,23.92
2019-04-25T12:38:35.467Z,23.38
2019-04-25T12:41:06.795Z,22.75
2019-04-25T12:43:39.925Z,22.70
2019-04-25T12:46:15.767Z,22.65
2019-04-25T12:48:47.673Z,22.27
2019-04-25T12:51:19.141Z,22.27
2019-04-25T12:53:51.343Z,22.02
2019-04-25T12:56:24.647Z,21.80
2019-04-25T12:58:56.273Z,22.87
2019-04-25T13:01:27.760Z,22.17
2019-04-25T13:03:59.166Z,21.87
2019-04-25T13:06:30.637Z,22.58
2019-04-25T13:09:01.959Z,23.50
2019-04-25T13:11:34.960Z,22.37
2019-04-25T13:14:06.477Z,25.43
2019-04-25T13:16:37.895Z,23.90
2019-04-25T13:19:20.364Z,22.52
2019-04-25T13:21:43.286Z,24.63
2019-04-25T13:24:17.238Z,23.05
2019-04-25T13:26:59.194Z,22.75
2019-04-25T13:29:41.328Z,23.87
2019-04-25T13:32:26.843Z,24.52
2019-04-25T13:35:00.945Z,24.23
2019-04-25T13:37:34.152Z,24.50
2019-04-25T13:40:08.206Z,29.37
2019-04-25T13:42:39.734Z,28.70
2019-04-25T13:45:11.214Z,24.82
2019-04-25T13:47:42.671Z,24.90
2019-04-25T13:50:14.691Z,22.50
2019-04-25T13:52:46.287Z,23.80
2019-04-25T13:55:17.753Z,23.90
2019-04-25T13:57:49.138Z,23.60
2019-04-25T14:00:23.243Z,23.25
2019-04-25T14:02:55.693Z,22.40
2019-04-25T14:05:28.900Z,23.80
2019-04-25T14:08:00.436Z,23.18
2019-04-25T14:10:32.473Z,23.47
2019-04-25T14:13:06.480Z,26.77
2019-04-25T14:15:40.470Z,24.92
2019-04-25T14:18:19.302Z,41.88
2019-04-25T14:20:55.290Z,35.23
2019-04-25T14:23:27.427Z,22.13
2019-04-25T14:25:58.979Z,25.55
2019-04-25T14:28:31.819Z,25.17
2019-04-25T14:31:04.953Z,23.80
2019-04-25T14:33:36.405Z,25.12
2019-04-25T14:36:08.195Z,26.90
2019-04-25T14:38:39.824Z,26.30
2019-04-25T14:41:12.507Z,24.15
2019-04-25T14:43:46.348Z,23.15
2019-04-25T14:46:17.339Z,24.70
2019-04-25T14:48:50.299Z,21.77
2019-04-25T14:51:22.978Z,22.98
2019-04-25T14:53:55.320Z,23.52
2019-04-25T14:56:28.598Z,23.62
2019-04-25T14:59:00.370Z,24.10
2019-04-25T15:01:44.067Z,26.60
2019-04-25T15:04:05.436Z,23.55
2019-04-25T15:06:38.716Z,24.18
2019-04-25T15:09:10.476Z,23.12
2019-04-25T15:11:43.746Z,23.85
2019-04-25T15:14:17.922Z,24.43
2019-04-25T15:16:49.420Z,24.23
2019-04-25T15:19:21.102Z,23.07
2019-04-25T15:21:56.322Z,34.65
2019-04-25T15:24:27.792Z,25.82
2019-04-25T15:26:59.303Z,24.12
2019-04-25T15:29:30.878Z,25.88
2019-04-25T15:32:02.375Z,26.40
2019-04-25T15:34:35.995Z,25.62
2019-04-25T15:37:09.268Z,26.87
2019-04-25T15:39:42.526Z,26.75
2019-04-25T15:42:19.384Z,28.23
2019-04-25T15:44:55.210Z,27.65
2019-04-25T15:47:29.847Z,38.35
2019-04-25T15:50:01.480Z,30.17
2019-04-25T15:52:34.527Z,30.65
2019-04-25T15:55:07.966Z,30.40
2019-04-25T15:57:39.646Z,35.55
2019-04-25T16:00:12.839Z,34.05
2019-04-25T16:02:45.441Z,32.90
2019-04-25T16:05:17.086Z,33.85
2019-04-25T16:07:49.516Z,35.08
2019-04-25T16:10:22.500Z,35.78
2019-04-25T16:12:53.873Z,35.20
2019-04-25T16:15:25.437Z,34.95
2019-04-25T16:17:57.305Z,34.65
2019-04-25T16:20:29.570Z,35.40
2019-04-25T16:23:01.133Z,35.10
2019-04-25T16:25:33.927Z,35.55
2019-04-25T16:28:05.386Z,34.65
2019-04-25T16:30:36.989Z,37.20
2019-04-25T16:33:11.827Z,38.58
2019-04-25T16:35:43.369Z,38.50
2019-04-25T16:38:14.831Z,39.45
2019-04-25T16:40:46.331Z,37.93
2019-04-25T16:43:20.411Z,39.25
2019-04-25T16:45:52.294Z,40.33
2019-04-25T16:48:23.828Z,41.68
2019-04-25T16:50:55.576Z,40.58
2019-04-25T16:53:27.096Z,42.50
2019-04-25T16:55:58.614Z,42.95
2019-04-25T16:58:30.910Z,43.28
2019-04-25T17:01:08.225Z,43.48
2019-04-25T17:03:41.376Z,43.52
2019-04-25T17:06:13.174Z,45.00
2019-04-25T17:08:45.056Z,45.75
2019-04-25T17:11:17.075Z,46.63
2019-04-25T17:13:50.499Z,49.18
2019-04-25T17:16:23.696Z,43.78
2019-04-25T17:18:56.823Z,43.38
2019-04-25T17:21:28.389Z,42.90
2019-04-25T17:24:01.772Z,41.95
2019-04-25T17:26:33.564Z,41.85
2019-04-25T17:29:07.019Z,42.67
2019-04-25T17:31:56.158Z,45.52
2019-04-25T17:34:47.302Z,48.85
2019-04-25T17:37:26.153Z,45.55
2019-04-25T17:40:05.099Z,42.27
2019-04-25T17:42:36.810Z,44.85
2019-04-25T17:45:10.086Z,44.50
2019-04-25T17:47:52.324Z,46.98
2019-04-25T17:50:14.948Z,44.58
2019-04-25T17:52:50.297Z,46.42
2019-04-25T17:55:21.933Z,44.00
2019-04-25T17:57:53.922Z,44.33
2019-04-25T18:00:30.209Z,43.25
2019-04-25T18:03:08.843Z,44.80
2019-04-25T18:05:42.383Z,44.55
2019-04-25T18:08:14.731Z,40.92
2019-04-25T18:10:51.627Z,41.45
2019-04-25T18:13:24.182Z,40.03
2019-04-25T18:15:59.706Z,39.10
2019-04-25T18:18:54.610Z,38.80
2019-04-25T18:24:01.325Z,38.92
2019-04-25T18:26:43.542Z,39.40
2019-04-25T18:29:16.508Z,42.88
2019-04-25T18:31:48.454Z,41.15
2019-04-25T18:34:21.699Z,41.15
2019-04-25T18:37:03.839Z,63.25
2019-04-25T18:39:37.745Z,44.55
2019-04-25T18:42:15.284Z,38.45
2019-04-25T18:44:46.781Z,38.05
2019-04-25T18:47:18.566Z,37.00
2019-04-25T18:49:50.128Z,35.95
2019-04-25T18:52:39.611Z,33.15
2019-04-25T18:55:12.838Z,33.88
2019-04-25T18:57:51.998Z,33.88
2019-04-25T19:00:41.646Z,35.68
2019-04-25T19:03:31.901Z,42.80
2019-04-25T19:06:05.400Z,45.70
2019-04-25T19:08:48.019Z,45.38
2019-04-25T19:11:19.804Z,46.95
2019-04-25T19:13:51.750Z,46.98
2019-04-25T19:16:23.291Z,46.45
2019-04-25T19:18:54.779Z,45.35
2019-04-25T19:21:26.494Z,47.48
2019-04-25T19:23:59.065Z,44.98
2019-04-25T19:26:30.564Z,41.50
2019-04-25T19:29:03.116Z,42.40
2019-04-25T19:31:35.840Z,38.10
2019-04-25T19:34:07.351Z,267.07
2019-04-25T19:36:38.961Z,96.53
2019-04-25T19:39:10.744Z,38.25
2019-04-25T19:41:45.038Z,38.28
2019-04-25T19:44:23.370Z,38.80
2019-04-25T19:46:55.019Z,39.33
2019-04-25T19:49:26.702Z,40.33
2019-04-25T19:51:58.304Z,39.85
2019-04-25T19:54:30.362Z,39.85
2019-04-25T19:57:01.919Z,39.98
2019-04-25T19:59:33.530Z,140.07
2019-04-25T20:02:10.206Z,44.23
2019-04-25T20:04:51.140Z,39.63
2019-04-25T20:07:24.669Z,44.70
2019-04-25T20:10:05.675Z,33.28
2019-04-25T20:12:50.541Z,30.48
2019-04-25T20:15:21.386Z,31.35
2019-04-25T20:17:54.285Z,44.88
2019-04-25T20:20:31.805Z,28.27
2019-04-25T20:23:04.537Z,26.50
2019-04-25T20:25:37.288Z,35.13
2019-04-25T20:28:09.233Z,40.70
2019-04-25T20:30:42.416Z,43.78
2019-04-25T20:33:14.317Z,39.15
2019-04-25T20:35:47.457Z,42.83
2019-04-25T20:38:22.870Z,46.85
2019-04-25T20:40:55.991Z,46.18
2019-04-25T20:43:28.074Z,42.80
2019-04-25T20:46:04.031Z,45.25
2019-04-25T20:48:36.196Z,43.90
2019-04-25T20:51:08.265Z,46.37
2019-04-25T20:53:39.711Z,45.63
2019-04-25T20:56:12.170Z,44.65
2019-04-25T20:58:44.449Z,44.40
2019-04-25T21:01:16.275Z,43.92
2019-04-25T21:03:48.614Z,35.08
2019-04-25T21:06:29.209Z,36.40
2019-04-25T21:09:00.686Z,39.27
2019-04-25T21:11:34.191Z,33.90
2019-04-25T21:14:07.939Z,58.68
2019-04-25T21:16:56.488Z,45.30
2019-04-25T21:19:32.530Z,46.55
2019-04-25T21:22:05.470Z,47.55
2019-04-25T21:24:37.620Z,55.25
2019-04-25T21:41:51.437Z,48.20
2019-04-25T21:44:24.354Z,51.98
2019-04-25T21:46:56.331Z,56.58
2019-04-25T21:49:28.480Z,62.75
2019-04-25T21:52:01.010Z,68.72
2019-04-25T21:54:32.894Z,72.00
2019-04-25T21:57:04.577Z,61.88
2019-04-25T21:59:36.357Z,78.80
2019-04-25T22:02:08.333Z,84.90
2019-04-25T22:04:41.417Z,161.05
2019-04-25T22:07:13.644Z,172.45
2019-04-25T22:09:45.580Z,85.45
2019-04-25T22:12:17.849Z,83.15
2019-04-25T22:14:49.407Z,83.97
2019-04-25T22:17:21.017Z,81.00
2019-04-25T22:19:52.839Z,78.83
2019-04-25T22:22:24.765Z,77.50
2019-04-25T22:24:57.279Z,74.32
2019-04-25T22:27:32.724Z,67.80
2019-04-25T22:30:08.456Z,63.48
2019-04-25T22:33:00.157Z,58.05
2019-04-25T22:35:33.408Z,52.27
2019-04-25T22:38:06.362Z,43.40
2019-04-25T22:40:39.312Z,103.22
2019-04-25T22:43:12.044Z,38.42
2019-04-25T22:45:45.009Z,35.08
2019-04-25T22:48:18.400Z,36.60
2019-04-25T22:50:50.624Z,33.80
2019-04-25T22:53:24.828Z,32.80
2019-04-25T22:55:55.358Z,30.15
2019-04-25T22:58:26.821Z,31.25
2019-04-25T23:00:58.648Z,31.27
2019-04-25T23:03:31.954Z,31.15
2019-04-25T23:06:04.148Z,32.08
2019-04-25T23:08:36.071Z,29.65
2019-04-25T23:11:08.432Z,30.77
2019-04-25T23:13:39.910Z,28.55
2019-04-25T23:16:11.700Z,29.12
2019-04-25T23:18:42.986Z,27.10
2019-04-25T23:21:14.543Z,26.65
2019-04-25T23:23:46.198Z,26.37
2019-04-25T23:26:19.242Z,25.45
2019-04-25T23:28:52.680Z,23.92
2019-04-25T23:31:32.038Z,24.02
2019-04-25T23:34:04.502Z,23.87
2019-04-25T23:36:36.903Z,24.60
2019-04-25T23:39:09.404Z,22.27
2019-04-25T23:41:41.423Z,22.50
2019-04-25T23:44:12.852Z,22.07
2019-04-25T23:46:46.615Z,23.75
2019-04-25T23:49:18.009Z,22.73
2019-04-25T23:51:50.665Z,22.65
2019-04-25T23:54:22.085Z,22.00
2019-04-25T23:56:55.611Z,22.30
2019-04-25T23:59:27.200Z,22.32
